createdAt,value
2023-03-24T00:00:48.234Z,997.73
2023-03-24T00:01:48.229Z,997.73
2023-03-24T00:02:48.308Z,997.76
2023-03-24T00:03:48.338Z,997.71
2023-03-24T00:04:48.234Z,997.74
2023-03-24T00:05:48.253Z,997.72
2023-03-24T00:06:48.196Z,997.76
2023-03-24T00:07:48.200Z,997.75
2023-03-24T00:08:48.389Z,997.64
2023-03-24T00:09:48.192Z,997.65
2023-03-24T00:10:48.193Z,997.65
2023-03-24T00:11:48.173Z,997.56
2023-03-24T00:12:48.178Z,997.57
2023-03-24T00:13:48.173Z,997.52
2023-03-24T00:14:48.176Z,997.44
2023-03-24T00:15:48.220Z,997.47
2023-03-24T00:16:48.176Z,997.51
2023-03-24T00:17:48.173Z,997.46
2023-03-24T00:18:48.170Z,997.44
2023-03-24T00:19:48.154Z,997.39
2023-03-24T00:20:48.181Z,997.37
2023-03-24T00:21:48.177Z,997.38
2023-03-24T00:22:48.166Z,997.34
2023-03-24T00:23:48.153Z,997.30
2023-03-24T00:24:48.149Z,997.27
2023-03-24T00:25:48.143Z,997.26
2023-03-24T00:26:48.145Z,997.27
2023-03-24T00:27:48.162Z,997.26
2023-03-24T00:28:48.166Z,997.25
2023-03-24T00:29:48.130Z,997.21
2023-03-24T00:30:48.130Z,997.21
2023-03-24T00:31:48.150Z,997.22
2023-03-24T00:32:48.183Z,997.17
2023-03-24T00:33:48.145Z,997.17
2023-03-24T00:34:48.127Z,997.16
2023-03-24T00:35:48.183Z,997.13
2023-03-24T00:36:48.137Z,997.14
2023-03-24T00:37:48.132Z,997.16
2023-03-24T00:38:48.106Z,997.14
2023-03-24T00:39:48.109Z,997.16
2023-03-24T00:40:48.109Z,997.12
2023-03-24T00:41:48.111Z,997.18
2023-03-24T00:42:48.098Z,997.16
2023-03-24T00:43:48.109Z,997.17
2023-03-24T00:44:48.104Z,997.17
2023-03-24T00:45:48.096Z,997.13
2023-03-24T00:46:48.099Z,997.12
2023-03-24T00:47:48.101Z,997.10
2023-03-24T00:48:48.081Z,997.13
2023-03-24T00:49:48.117Z,997.09
2023-03-24T00:50:48.087Z,997.06
2023-03-24T00:51:48.091Z,997.05
2023-03-24T00:52:48.280Z,997.07
2023-03-24T00:53:48.072Z,997.04
2023-03-24T00:54:48.074Z,997.03
2023-03-24T00:55:48.065Z,996.99
2023-03-24T00:56:48.109Z,996.96
2023-03-24T00:57:48.063Z,996.99
2023-03-24T00:58:48.062Z,996.99
2023-03-24T00:59:48.056Z,996.98
2023-03-24T01:00:48.338Z,997.00
2023-03-24T01:01:48.089Z,996.98
2023-03-24T01:02:48.087Z,996.94
2023-03-24T01:03:48.062Z,996.89
2023-03-24T01:04:48.041Z,996.96
2023-03-24T01:05:48.025Z,996.94
2023-03-24T01:06:48.044Z,996.90
2023-03-24T01:07:48.026Z,996.90
2023-03-24T01:08:48.109Z,996.91
2023-03-24T01:09:48.026Z,996.94
2023-03-24T01:10:48.014Z,996.87
2023-03-24T01:11:48.023Z,996.90
2023-03-24T01:12:48.020Z,996.89
2023-03-24T01:13:48.018Z,996.89
2023-03-24T01:14:48.013Z,996.88
2023-03-24T01:15:48.010Z,996.89
2023-03-24T01:16:48.045Z,996.86
2023-03-24T01:17:48.057Z,996.85
2023-03-24T01:18:48.005Z,996.84
2023-03-24T01:19:47.995Z,996.90
2023-03-24T01:20:48.005Z,996.82
2023-03-24T01:21:48.000Z,996.83
2023-03-24T01:22:48.002Z,996.85
2023-03-24T01:23:47.998Z,996.79
2023-03-24T01:24:48.026Z,996.83
2023-03-24T01:25:47.988Z,996.80
2023-03-24T01:26:47.996Z,996.77
2023-03-24T01:27:47.967Z,996.77
2023-03-24T01:28:47.980Z,996.76
2023-03-24T01:29:47.955Z,996.75
2023-03-24T01:30:47.959Z,996.70
2023-03-24T01:31:48.001Z,996.70
2023-03-24T01:32:47.975Z,996.73
2023-03-24T01:33:47.953Z,996.67
2023-03-24T01:34:47.951Z,996.65
2023-03-24T01:35:47.977Z,996.71
2023-03-24T01:36:47.964Z,996.58
2023-03-24T01:37:47.952Z,996.52
2023-03-24T01:38:47.940Z,996.57
2023-03-24T01:39:47.948Z,996.49
2023-03-24T01:40:47.948Z,996.54
2023-03-24T01:41:47.930Z,996.55
2023-03-24T01:42:47.933Z,996.46
2023-03-24T01:43:47.927Z,996.47
2023-03-24T01:44:47.943Z,996.46
2023-03-24T01:45:47.929Z,996.43
2023-03-24T01:46:47.910Z,996.46
2023-03-24T01:47:47.938Z,996.38
2023-03-24T01:48:47.936Z,996.40
2023-03-24T01:49:47.913Z,996.35
2023-03-24T01:50:47.914Z,996.37
2023-03-24T01:51:47.906Z,996.37
2023-03-24T01:52:47.916Z,996.30
2023-03-24T01:53:47.894Z,996.29
2023-03-24T01:54:47.890Z,996.30
2023-03-24T01:55:47.904Z,996.29
2023-03-24T01:56:47.921Z,996.23
2023-03-24T01:57:47.888Z,996.20
2023-03-24T01:58:47.883Z,996.16
2023-03-24T01:59:47.907Z,996.14
2023-03-24T02:00:47.873Z,996.08
2023-03-24T02:01:47.865Z,996.05
2023-03-24T02:02:47.912Z,996.02
2023-03-24T02:03:47.887Z,995.97
2023-03-24T02:04:47.885Z,995.98
2023-03-24T02:05:47.862Z,995.97
2023-03-24T02:06:47.858Z,995.87
2023-03-24T02:07:47.850Z,995.86
2023-03-24T02:08:47.853Z,995.83
2023-03-24T02:09:47.861Z,995.81
2023-03-24T02:10:47.996Z,995.83
2023-03-24T02:11:47.833Z,995.81
2023-03-24T02:12:47.869Z,995.78
2023-03-24T02:13:47.846Z,995.73
2023-03-24T02:14:48.001Z,995.69
2023-03-24T02:15:47.837Z,995.65
2023-03-24T02:16:47.847Z,995.65
2023-03-24T02:17:47.874Z,995.64
2023-03-24T02:18:47.825Z,995.62
2023-03-24T02:19:47.836Z,995.61
2023-03-24T02:20:47.879Z,995.62
2023-03-24T02:21:47.823Z,995.66
2023-03-24T02:22:47.840Z,995.57
2023-03-24T02:23:47.807Z,995.56
2023-03-24T02:24:47.818Z,995.56
2023-03-24T02:25:47.827Z,995.52
2023-03-24T02:26:47.807Z,995.54
2023-03-24T02:27:47.799Z,995.53
2023-03-24T02:28:47.947Z,995.51
2023-03-24T02:29:47.798Z,995.54
2023-03-24T02:30:47.818Z,995.54
2023-03-24T02:31:47.841Z,995.49
2023-03-24T02:32:47.822Z,995.45
2023-03-24T02:33:47.789Z,995.44
2023-03-24T02:34:47.804Z,995.40
2023-03-24T02:35:47.812Z,995.39
2023-03-24T02:36:47.776Z,995.40
2023-03-24T02:37:47.781Z,995.42
2023-03-24T02:38:47.786Z,995.44
2023-03-24T02:39:47.794Z,995.39
2023-03-24T02:40:48.024Z,995.41
2023-03-24T02:41:47.757Z,995.45
2023-03-24T02:42:47.771Z,995.46
2023-03-24T02:43:47.770Z,995.40
2023-03-24T02:44:47.771Z,995.50
2023-03-24T02:45:47.775Z,995.44
2023-03-24T02:46:47.735Z,995.42
2023-03-24T02:47:47.804Z,995.43
2023-03-24T02:48:47.744Z,995.40
2023-03-24T02:49:47.732Z,995.40
2023-03-24T02:50:47.820Z,995.46
2023-03-24T02:51:47.731Z,995.48
2023-03-24T02:52:47.737Z,995.54
2023-03-24T02:53:47.735Z,995.48
2023-03-24T02:54:47.714Z,995.54
2023-03-24T02:55:47.736Z,995.60
2023-03-24T02:56:47.815Z,995.52
2023-03-24T02:57:47.704Z,995.54
2023-03-24T02:58:47.714Z,995.55
2023-03-24T02:59:47.719Z,995.61
2023-03-24T03:00:47.898Z,995.61
2023-03-24T03:01:47.733Z,995.67
2023-03-24T03:02:47.747Z,995.54
2023-03-24T03:03:47.760Z,995.53
2023-03-24T03:04:47.732Z,995.52
2023-03-24T03:05:47.680Z,995.56
2023-03-24T03:06:47.685Z,995.54
2023-03-24T03:07:47.697Z,995.54
2023-03-24T03:08:47.717Z,995.54
2023-03-24T03:09:47.698Z,995.54
2023-03-24T03:10:47.915Z,995.52
2023-03-24T03:11:47.687Z,995.53
2023-03-24T03:12:49.420Z,995.49
2023-03-24T03:13:47.702Z,995.49
2023-03-24T03:14:47.646Z,995.52
2023-03-24T03:15:47.704Z,995.49
2023-03-24T03:16:47.679Z,995.50
2023-03-24T03:17:47.696Z,995.49
2023-03-24T03:18:47.666Z,995.49
2023-03-24T03:19:47.671Z,995.45
2023-03-24T03:20:47.746Z,995.49
2023-03-24T03:21:47.637Z,995.48
2023-03-24T03:22:47.650Z,995.47
2023-03-24T03:23:47.656Z,995.50
2023-03-24T03:24:47.632Z,995.45
2023-03-24T03:25:47.644Z,995.43
2023-03-24T03:26:47.644Z,995.40
2023-03-24T03:27:47.641Z,995.38
2023-03-24T03:28:47.641Z,995.37
2023-03-24T03:29:47.645Z,995.36
2023-03-24T03:30:47.817Z,995.37
2023-03-24T03:31:47.625Z,995.34
2023-03-24T03:32:47.699Z,995.34
2023-03-24T03:33:47.630Z,995.33
2023-03-24T03:34:47.613Z,995.30
2023-03-24T03:35:47.918Z,995.33
2023-03-24T03:36:47.604Z,995.34
2023-03-24T03:37:47.597Z,995.33
2023-03-24T03:38:47.614Z,995.34
2023-03-24T03:39:47.605Z,995.29
2023-03-24T03:40:47.600Z,995.31
2023-03-24T03:41:47.598Z,995.27
2023-03-24T03:42:47.589Z,995.25
2023-03-24T03:43:47.591Z,995.27
2023-03-24T03:44:47.589Z,995.27
2023-03-24T03:45:47.765Z,995.25
2023-03-24T03:46:47.585Z,995.22
2023-03-24T03:47:47.607Z,995.23
2023-03-24T03:48:47.591Z,995.21
2023-03-24T03:49:47.581Z,995.17
2023-03-24T03:50:47.558Z,995.20
2023-03-24T03:51:47.567Z,995.14
2023-03-24T03:52:47.563Z,995.13
2023-03-24T03:53:47.571Z,995.17
2023-03-24T03:54:47.548Z,995.23
2023-03-24T03:55:47.617Z,995.21
2023-03-24T03:56:47.565Z,995.25
2023-03-24T03:57:47.553Z,995.24
2023-03-24T03:58:47.557Z,995.30
2023-03-24T03:59:47.550Z,995.33
2023-03-24T04:00:47.541Z,995.34
2023-03-24T04:01:47.553Z,995.36
2023-03-24T04:02:47.591Z,995.31
2023-03-24T04:03:47.575Z,995.32
2023-03-24T04:04:50.682Z,995.29
2023-03-24T04:05:47.543Z,995.32
2023-03-24T04:06:47.529Z,995.36
2023-03-24T04:07:47.519Z,995.35
2023-03-24T04:08:47.519Z,995.32
2023-03-24T04:09:47.527Z,995.31
2023-03-24T04:10:47.510Z,995.36
2023-03-24T04:11:47.523Z,995.38
2023-03-24T04:12:47.525Z,995.38
2023-03-24T04:13:47.567Z,995.36
2023-03-24T04:14:47.552Z,995.33
2023-03-24T04:15:47.990Z,995.39
2023-03-24T04:16:47.537Z,995.42
2023-03-24T04:17:47.612Z,995.34
2023-03-24T04:18:47.479Z,995.32
2023-03-24T04:19:47.489Z,995.34
2023-03-24T04:20:47.520Z,995.34
2023-03-24T04:21:47.510Z,995.35
2023-03-24T04:22:47.476Z,995.41
2023-03-24T04:23:47.481Z,995.42
2023-03-24T04:24:47.457Z,995.47
2023-03-24T04:25:47.476Z,995.46
2023-03-24T04:26:47.461Z,995.46
2023-03-24T04:27:47.462Z,995.46
2023-03-24T04:28:47.471Z,995.47
2023-03-24T04:29:47.461Z,995.53
2023-03-24T04:30:47.443Z,995.52
2023-03-24T04:31:47.543Z,995.59
2023-03-24T04:32:47.522Z,995.62
2023-03-24T04:33:47.458Z,995.59
2023-03-24T04:34:47.433Z,995.56
2023-03-24T04:35:47.550Z,995.57
2023-03-24T04:36:47.441Z,995.60
2023-03-24T04:37:47.467Z,995.66
2023-03-24T04:38:47.416Z,995.67
2023-03-24T04:39:47.431Z,995.73
2023-03-24T04:40:47.705Z,995.71
2023-03-24T04:41:47.454Z,995.69
2023-03-24T04:42:47.429Z,995.69
2023-03-24T04:43:47.433Z,995.69
2023-03-24T04:44:47.401Z,995.66
2023-03-24T04:45:47.727Z,995.69
2023-03-24T04:46:47.404Z,995.77
2023-03-24T04:47:47.500Z,995.79
2023-03-24T04:48:47.406Z,995.85
2023-03-24T04:49:47.400Z,995.89
2023-03-24T04:50:47.398Z,995.95
2023-03-24T04:51:47.414Z,996.05
2023-03-24T04:52:47.412Z,996.10
2023-03-24T04:53:47.400Z,996.03
2023-03-24T04:54:47.383Z,996.23
2023-03-24T04:55:47.379Z,996.30
2023-03-24T04:56:47.393Z,996.29
2023-03-24T04:57:47.373Z,996.33
2023-03-24T04:58:47.362Z,996.10
2023-03-24T04:59:47.385Z,996.23
2023-03-24T05:00:47.412Z,996.30
2023-03-24T05:01:47.352Z,996.30
2023-03-24T05:02:47.361Z,996.28
2023-03-24T05:03:47.402Z,996.35
2023-03-24T05:04:47.342Z,996.33
2023-03-24T05:05:47.352Z,996.28
2023-03-24T05:06:47.344Z,996.35
2023-03-24T05:07:47.354Z,996.38
2023-03-24T05:08:47.339Z,996.39
2023-03-24T05:09:47.336Z,996.33
2023-03-24T05:10:47.344Z,996.28
2023-03-24T05:11:47.337Z,996.28
2023-03-24T05:12:47.323Z,996.40
2023-03-24T05:13:47.334Z,996.38
2023-03-24T05:14:47.324Z,996.41
2023-03-24T05:15:47.410Z,996.41
2023-03-24T05:16:47.380Z,996.44
2023-03-24T05:17:47.377Z,996.49
2023-03-24T05:18:47.298Z,996.56
2023-03-24T05:19:47.318Z,996.54
2023-03-24T05:20:47.305Z,996.57
2023-03-24T05:21:47.296Z,996.60
2023-03-24T05:22:47.313Z,996.64
2023-03-24T05:23:47.319Z,996.66
2023-03-24T05:24:47.314Z,996.66
2023-03-24T05:25:47.278Z,996.68
2023-03-24T05:26:47.287Z,996.79
2023-03-24T05:27:47.296Z,996.83
2023-03-24T05:28:47.267Z,996.86
2023-03-24T05:29:47.281Z,996.88
2023-03-24T05:30:47.364Z,996.89
2023-03-24T05:31:47.265Z,996.82
2023-03-24T05:32:47.572Z,996.85
2023-03-24T05:33:47.272Z,996.83
2023-03-24T05:35:29.683Z,996.90
2023-03-24T05:36:29.694Z,996.84
2023-03-24T05:37:29.686Z,996.92
2023-03-24T05:38:29.672Z,996.92
2023-03-24T05:39:29.671Z,996.94
2023-03-24T05:40:29.696Z,996.93
2023-03-24T05:41:29.654Z,996.98
2023-03-24T05:42:29.660Z,996.99
2023-03-24T05:43:29.646Z,996.90
2023-03-24T05:45:29.638Z,996.99
2023-03-24T05:46:29.708Z,996.95
2023-03-24T05:47:29.663Z,996.96
2023-03-24T05:48:29.658Z,996.99
2023-03-24T05:49:29.634Z,996.98
2023-03-24T05:50:29.644Z,997.08
2023-03-24T05:51:29.638Z,997.03
2023-03-24T05:52:29.656Z,997.07
2023-03-24T05:53:29.660Z,997.08
2023-03-24T05:54:29.626Z,997.10
2023-03-24T05:55:29.612Z,997.10
2023-03-24T05:56:29.653Z,997.14
2023-03-24T05:57:29.608Z,997.21
2023-03-24T05:58:29.617Z,997.21
2023-03-24T05:59:29.617Z,997.24
2023-03-24T06:00:29.628Z,997.31
2023-03-24T06:01:29.612Z,997.26
2023-03-24T06:02:29.743Z,997.31
2023-03-24T06:03:29.794Z,997.36
2023-03-24T06:04:29.671Z,997.33
2023-03-24T06:05:29.602Z,997.28
2023-03-24T06:06:29.600Z,997.38
2023-03-24T06:07:29.598Z,997.45
2023-03-24T06:08:29.595Z,997.41
2023-03-24T06:09:29.608Z,997.44
2023-03-24T06:10:29.604Z,997.45
2023-03-24T06:11:29.596Z,997.50
2023-03-24T06:12:29.614Z,997.48
2023-03-24T06:13:29.571Z,997.47
2023-03-24T06:14:29.573Z,997.53
2023-03-24T06:15:29.592Z,997.61
2023-03-24T06:16:29.639Z,997.51
2023-03-24T06:17:29.651Z,997.56
2023-03-24T06:18:29.560Z,997.46
2023-03-24T06:19:29.576Z,997.55
2023-03-24T06:20:29.567Z,997.64
2023-03-24T06:21:29.560Z,997.63
2023-03-24T06:22:29.556Z,997.70
2023-03-24T06:23:29.676Z,997.76
2023-03-24T06:24:29.552Z,997.72
2023-03-24T06:25:29.564Z,997.78
2023-03-24T06:26:29.559Z,997.89
2023-03-24T06:27:29.564Z,997.87
2023-03-24T06:28:29.612Z,997.93
2023-03-24T06:29:29.552Z,997.91
2023-03-24T06:30:29.536Z,997.89
2023-03-24T06:31:29.611Z,997.98
2023-03-24T06:32:29.585Z,998.01
2023-03-24T06:33:29.549Z,998.09
2023-03-24T06:34:29.533Z,998.06
2023-03-24T06:35:29.549Z,998.04
2023-03-24T06:36:29.556Z,997.99
2023-03-24T06:37:29.542Z,997.97
2023-03-24T06:38:29.633Z,998.04
2023-03-24T06:39:29.537Z,997.93
2023-03-24T06:40:29.542Z,997.86
2023-03-24T06:41:29.527Z,997.99
2023-03-24T06:42:29.554Z,998.09
2023-03-24T06:43:29.511Z,998.22
2023-03-24T06:44:29.539Z,998.24
2023-03-24T06:45:31.163Z,998.31
2023-03-24T06:46:29.502Z,998.31
2023-03-24T06:47:29.535Z,998.39
2023-03-24T06:48:29.566Z,998.37
2023-03-24T06:49:29.511Z,998.41
2023-03-24T06:50:29.520Z,998.35
2023-03-24T06:51:29.538Z,998.27
2023-03-24T06:52:29.493Z,998.34
2023-03-24T06:53:29.509Z,998.36
2023-03-24T06:54:29.491Z,998.40
2023-03-24T06:55:29.501Z,998.40
2023-03-24T06:56:29.547Z,998.48
2023-03-24T06:57:29.512Z,998.55
2023-03-24T06:58:29.530Z,998.52
2023-03-24T06:59:29.484Z,998.56
2023-03-24T07:00:29.518Z,998.60
2023-03-24T07:01:29.533Z,998.54
2023-03-24T07:02:29.660Z,998.58
2023-03-24T07:03:29.682Z,998.59
2023-03-24T07:04:29.486Z,998.54
2023-03-24T07:05:29.483Z,998.49
2023-03-24T07:06:29.478Z,998.49
2023-03-24T07:08:08.330Z,998.49
2023-03-24T07:08:37.470Z,998.49
2023-03-24T07:09:29.472Z,998.51
2023-03-24T07:10:29.515Z,998.54
2023-03-24T07:11:29.463Z,998.62
2023-03-24T07:12:29.461Z,998.66
2023-03-24T07:13:29.474Z,998.67
2023-03-24T07:14:29.440Z,998.70
2023-03-24T07:15:29.446Z,998.72
2023-03-24T07:16:29.538Z,998.73
2023-03-24T07:17:29.471Z,998.73
2023-03-24T07:18:29.476Z,998.77
2023-03-24T07:19:29.479Z,998.74
2023-03-24T07:20:29.478Z,998.73
2023-03-24T07:21:29.443Z,998.67
2023-03-24T07:22:29.451Z,998.66
2023-03-24T07:23:29.431Z,998.67
2023-03-24T07:24:31.606Z,998.72
2023-03-24T07:25:29.458Z,998.76
2023-03-24T07:26:29.452Z,998.74
2023-03-24T07:27:29.429Z,998.69
2023-03-24T07:28:29.432Z,998.74
2023-03-24T07:29:29.556Z,998.77
2023-03-24T07:30:39.382Z,998.79
2023-03-24T07:31:29.451Z,998.82
2023-03-24T07:32:29.464Z,998.79
2023-03-24T07:33:29.421Z,998.79
2023-03-24T07:34:29.410Z,998.74
2023-03-24T07:35:29.421Z,998.78
2023-03-24T07:36:29.429Z,998.82
2023-03-24T07:37:29.405Z,998.82
2023-03-24T07:38:29.405Z,998.89
2023-03-24T07:39:29.408Z,998.85
2023-03-24T07:40:29.407Z,998.95
2023-03-24T07:41:29.417Z,998.99
2023-03-24T07:42:29.388Z,998.95
2023-03-24T07:43:29.401Z,998.95
2023-03-24T07:44:29.397Z,998.93
2023-03-24T07:45:29.462Z,999.01
2023-03-24T07:46:29.415Z,998.95
2023-03-24T07:47:29.686Z,999.04
2023-03-24T07:48:29.410Z,999.09
2023-03-24T07:49:29.392Z,999.14
2023-03-24T07:50:29.393Z,999.07
2023-03-24T07:51:29.384Z,999.05
2023-03-24T07:52:29.359Z,999.01
2023-03-24T07:53:29.365Z,999.02
2023-03-24T07:54:29.374Z,999.00
2023-03-24T07:55:29.365Z,998.99
2023-03-24T07:56:29.381Z,998.94
2023-03-24T07:57:29.350Z,998.91
2023-03-24T07:58:29.357Z,998.95
2023-03-24T07:59:29.396Z,999.01
2023-03-24T08:00:29.594Z,999.07
2023-03-24T08:01:29.354Z,999.10
2023-03-24T08:02:29.496Z,999.09
2023-03-24T08:03:29.490Z,999.15
2023-03-24T08:04:29.393Z,999.18
2023-03-24T08:05:29.340Z,999.17
2023-03-24T08:06:29.368Z,999.19
2023-03-24T08:07:29.364Z,999.19
2023-03-24T08:08:29.327Z,999.22
2023-03-24T08:09:29.329Z,999.17
2023-03-24T08:10:29.348Z,999.20
2023-03-24T08:11:29.364Z,999.21
2023-03-24T08:12:29.345Z,999.23
2023-03-24T08:13:29.317Z,999.21
2023-03-24T08:14:29.314Z,999.23
2023-03-24T08:15:29.323Z,999.22
2023-03-24T08:16:29.393Z,999.17
2023-03-24T08:17:29.373Z,999.15
2023-03-24T08:18:29.335Z,999.17
2023-03-24T08:19:29.304Z,999.12
2023-03-24T08:20:29.346Z,999.13
2023-03-24T08:21:29.310Z,999.12
2023-03-24T08:22:29.314Z,999.10
2023-03-24T08:23:29.301Z,999.16
2023-03-24T08:24:29.297Z,999.08
2023-03-24T08:25:29.301Z,999.07
2023-03-24T08:26:29.295Z,999.02
2023-03-24T08:27:29.309Z,999.00
2023-03-24T08:28:29.299Z,999.04
2023-03-24T08:29:29.294Z,999.00
2023-03-24T08:30:29.311Z,999.04
2023-03-24T08:31:29.293Z,999.04
2023-03-24T08:32:29.296Z,999.08
2023-03-24T08:33:29.268Z,999.12
2023-03-24T08:34:29.267Z,999.07
2023-03-24T08:35:29.286Z,999.05
2023-03-24T08:36:29.276Z,999.04
2023-03-24T08:37:29.261Z,999.04
2023-03-24T08:38:29.259Z,999.09
2023-03-24T08:39:29.290Z,999.07
2023-03-24T08:40:29.248Z,999.13
2023-03-24T08:41:29.295Z,999.07
2023-03-24T08:42:29.244Z,999.05
2023-03-24T08:43:29.265Z,999.07
2023-03-24T08:44:31.125Z,999.12
2023-03-24T08:45:29.263Z,999.14
2023-03-24T08:46:29.305Z,999.08
2023-03-24T08:47:29.313Z,999.13
2023-03-24T08:48:29.239Z,999.11
2023-03-24T08:49:29.240Z,999.14
2023-03-24T08:50:29.237Z,999.11
2023-03-24T08:51:29.227Z,999.16
2023-03-24T08:52:29.355Z,999.20
2023-03-24T08:53:29.236Z,999.18
2023-03-24T08:54:29.234Z,999.16
2023-03-24T08:55:29.224Z,999.22
2023-03-24T08:56:29.238Z,999.23
2023-03-24T08:57:29.227Z,999.21
2023-03-24T08:58:29.212Z,999.28
2023-03-24T08:59:29.221Z,999.28
2023-03-24T09:00:29.341Z,999.26
2023-03-24T09:01:29.217Z,999.27
2023-03-24T09:02:29.238Z,999.28
2023-03-24T09:03:29.188Z,999.27
2023-03-24T09:04:29.246Z,999.30
2023-03-24T09:05:43.181Z,999.33
2023-03-24T09:06:29.193Z,999.37
2023-03-24T09:07:29.200Z,999.40
2023-03-24T09:08:29.219Z,999.42
2023-03-24T09:09:29.182Z,999.43
2023-03-24T09:10:29.186Z,999.37
2023-03-24T09:11:29.178Z,999.47
2023-03-24T09:12:29.199Z,999.46
2023-03-24T09:13:29.177Z,999.47
2023-03-24T09:14:29.186Z,999.46
2023-03-24T09:15:29.196Z,999.50
2023-03-24T09:16:29.208Z,999.47
2023-03-24T09:17:29.195Z,999.53
2023-03-24T09:18:29.185Z,999.50
2023-03-24T09:19:29.165Z,999.51
2023-03-24T09:20:29.162Z,999.53
2023-03-24T09:21:29.158Z,999.50
2023-03-24T09:22:29.167Z,999.55
2023-03-24T09:23:29.164Z,999.56
2023-03-24T09:24:29.169Z,999.52
2023-03-24T09:25:29.149Z,999.58
2023-03-24T09:26:29.132Z,999.54
2023-03-24T09:27:30.808Z,999.52
2023-03-24T09:28:29.124Z,999.50
2023-03-24T09:29:29.146Z,999.52
2023-03-24T09:30:30.943Z,999.50
2023-03-24T09:31:29.180Z,999.51
2023-03-24T09:32:29.226Z,999.54
2023-03-24T09:33:29.134Z,999.53
2023-03-24T09:34:29.111Z,999.52
2023-03-24T09:35:29.128Z,999.50
2023-03-24T09:36:31.102Z,999.46
2023-03-24T09:37:29.106Z,999.48
2023-03-24T09:38:29.122Z,999.48
2023-03-24T09:39:29.099Z,999.48
2023-03-24T09:40:29.138Z,999.50
2023-03-24T09:41:29.158Z,999.46
2023-03-24T09:42:29.103Z,999.49
2023-03-24T09:43:29.118Z,999.50
2023-03-24T09:44:29.118Z,999.53
2023-03-24T09:45:29.095Z,999.51
2023-03-24T09:46:29.133Z,999.52
2023-03-24T09:47:29.128Z,999.53
2023-03-24T09:48:29.099Z,999.49
2023-03-24T09:49:29.094Z,999.48
2023-03-24T09:50:29.102Z,999.54
2023-03-24T09:51:29.081Z,999.53
2023-03-24T09:52:29.103Z,999.55
2023-03-24T09:53:29.091Z,999.62
2023-03-24T09:54:29.098Z,999.61
2023-03-24T09:55:29.070Z,999.60
2023-03-24T09:56:29.145Z,999.52
2023-03-24T09:57:29.091Z,999.57
2023-03-24T09:58:29.061Z,999.60
2023-03-24T09:59:29.080Z,999.55
2023-03-24T10:00:29.118Z,999.64
2023-03-24T10:01:29.138Z,999.63
2023-03-24T10:02:29.185Z,999.62
2023-03-24T10:03:29.109Z,999.61
2023-03-24T10:04:29.057Z,999.57
2023-03-24T10:05:29.059Z,999.64
2023-03-24T10:06:29.052Z,999.60
2023-03-24T10:07:29.035Z,999.65
2023-03-24T10:08:30.767Z,999.57
2023-03-24T10:09:29.033Z,999.59
2023-03-24T10:10:29.031Z,999.61
2023-03-24T10:11:29.030Z,999.67
2023-03-24T10:12:29.074Z,999.73
2023-03-24T10:13:29.021Z,999.69
2023-03-24T10:14:29.037Z,999.67
2023-03-24T10:16:29.135Z,999.65
2023-03-24T10:17:29.053Z,999.69
2023-03-24T10:18:29.029Z,999.69
2023-03-24T10:19:29.029Z,999.70
2023-03-24T10:20:29.004Z,999.74
2023-03-24T10:21:29.027Z,999.72
2023-03-24T10:22:29.024Z,999.75
2023-03-24T10:23:29.014Z,999.74
2023-03-24T10:24:29.007Z,999.70
2023-03-24T10:25:29.012Z,999.76
2023-03-24T10:26:28.991Z,999.78
2023-03-24T10:27:29.012Z,999.83
2023-03-24T10:28:29.043Z,999.79
2023-03-24T10:29:29.008Z,999.83
2023-03-24T10:30:29.008Z,999.79
2023-03-24T10:31:29.000Z,999.83
2023-03-24T10:32:29.008Z,999.79
2023-03-24T10:33:28.994Z,999.83
2023-03-24T10:34:28.980Z,999.78
2023-03-24T10:35:28.978Z,999.82
2023-03-24T10:36:28.995Z,999.84
2023-03-24T10:37:28.966Z,999.93
2023-03-24T10:38:28.974Z,999.91
2023-03-24T10:39:42.010Z,999.90
2023-03-24T10:40:33.501Z,999.89
2023-03-24T10:41:28.976Z,999.92
2023-03-24T10:42:28.956Z,999.92
2023-03-24T10:43:28.957Z,999.93
2023-03-24T10:44:28.971Z,999.88
2023-03-24T10:45:28.976Z,999.92
2023-03-24T10:46:28.970Z,999.84
2023-03-24T10:47:30.711Z,999.83
2023-03-24T10:48:28.936Z,999.82
2023-03-24T10:49:28.960Z,999.86
2023-03-24T10:50:28.960Z,999.88
2023-03-24T10:51:28.967Z,999.88
2023-03-24T10:52:28.943Z,999.87
2023-03-24T10:53:28.925Z,999.87
2023-03-24T10:54:28.949Z,999.89
2023-03-24T10:55:28.933Z,999.94
2023-03-24T10:56:28.935Z,999.92
2023-03-24T10:57:28.909Z,999.96
2023-03-24T10:58:28.918Z,999.95
2023-03-24T10:59:28.927Z,1000.03
2023-03-24T11:00:28.953Z,999.93
2023-03-24T11:01:28.948Z,1000.01
2023-03-24T11:02:28.970Z,1000.00
2023-03-24T11:03:28.957Z,999.97
2023-03-24T11:04:28.902Z,1000.00
2023-03-24T11:05:28.918Z,999.96
2023-03-24T11:06:28.936Z,1000.04
2023-03-24T11:07:28.893Z,1000.06
2023-03-24T11:08:28.904Z,1000.05
2023-03-24T11:09:28.892Z,1000.02
2023-03-24T11:10:28.891Z,1000.11
2023-03-24T11:11:28.886Z,1000.03
2023-03-24T11:12:28.871Z,1000.07
2023-03-24T11:13:28.873Z,1000.06
2023-03-24T11:14:28.885Z,1000.06
2023-03-24T11:15:28.863Z,1000.00
2023-03-24T11:16:28.957Z,1000.00
2023-03-24T11:17:28.884Z,999.96
2023-03-24T11:18:28.885Z,1000.00
2023-03-24T11:19:28.870Z,1000.01
2023-03-24T11:20:28.863Z,1000.03
2023-03-24T11:21:28.847Z,1000.00
2023-03-24T11:22:28.870Z,1000.03
2023-03-24T11:23:28.862Z,1000.05
2023-03-24T11:24:28.846Z,1000.08
2023-03-24T11:25:29.396Z,1000.04
2023-03-24T11:26:28.847Z,1000.00
2023-03-24T11:27:28.828Z,1000.01
2023-03-24T11:28:28.832Z,999.98
2023-03-24T11:29:28.825Z,999.96
2023-03-24T11:30:28.837Z,999.99
2023-03-24T11:31:28.894Z,999.98
2023-03-24T11:32:28.927Z,1000.03
2023-03-24T11:33:34.923Z,1000.00
2023-03-24T11:34:28.842Z,999.99
2023-03-24T11:35:39.298Z,1000.01
2023-03-24T11:36:28.946Z,999.98
2023-03-24T11:37:28.814Z,1000.06
2023-03-24T11:38:28.814Z,1000.03
2023-03-24T11:39:28.819Z,1000.09
2023-03-24T11:40:29.046Z,1000.03
2023-03-24T11:41:28.828Z,1000.04
2023-03-24T11:42:28.799Z,1000.01
2023-03-24T11:43:28.800Z,999.99
2023-03-24T11:44:28.815Z,999.93
2023-03-24T11:45:28.795Z,999.99
2023-03-24T11:46:28.859Z,999.99
2023-03-24T11:47:28.837Z,1000.02
2023-03-24T11:48:28.805Z,999.92
2023-03-24T11:49:28.789Z,999.92
2023-03-24T11:50:28.820Z,999.96
2023-03-24T11:51:28.873Z,999.93
2023-03-24T11:52:28.784Z,999.96
2023-03-24T11:53:28.774Z,999.96
2023-03-24T11:54:30.097Z,999.89
2023-03-24T11:55:28.789Z,999.88
2023-03-24T11:56:28.783Z,999.94
2023-03-24T11:57:28.771Z,999.96
2023-03-24T11:58:28.806Z,999.95
2023-03-24T11:59:28.762Z,999.88
2023-03-24T12:00:30.087Z,999.92
2023-03-24T12:01:28.770Z,999.83
2023-03-24T12:02:28.842Z,999.87
2023-03-24T12:03:28.926Z,999.82
2023-03-24T12:04:28.782Z,999.79
2023-03-24T12:05:28.838Z,999.76
2023-03-24T12:06:28.845Z,999.75
2023-03-24T12:07:28.765Z,999.80
2023-03-24T12:08:28.752Z,999.76
2023-03-24T12:09:28.722Z,999.76
2023-03-24T12:10:28.728Z,999.80
2023-03-24T12:11:28.726Z,999.82
2023-03-24T12:12:28.744Z,999.82
2023-03-24T12:13:33.115Z,999.79
2023-03-24T12:14:28.718Z,999.78
2023-03-24T12:15:29.259Z,999.76
2023-03-24T12:16:28.786Z,999.75
2023-03-24T12:17:28.772Z,999.78
2023-03-24T12:18:28.738Z,999.82
2023-03-24T12:19:28.701Z,999.77
2023-03-24T12:20:28.724Z,999.75
2023-03-24T12:21:28.712Z,999.84
2023-03-24T12:22:28.715Z,999.79
2023-03-24T12:23:28.738Z,999.80
2023-03-24T12:24:28.696Z,999.72
2023-03-24T12:25:28.711Z,999.75
2023-03-24T12:26:28.684Z,999.71
2023-03-24T12:27:28.686Z,999.65
2023-03-24T12:28:28.697Z,999.69
2023-03-24T12:29:28.706Z,999.69
2023-03-24T12:30:28.689Z,999.63